Time;durP1;ratioP1;P1;durP2;ratioP2;P2;SDS_P1;SDS_P2;PMS_P1;PMS_P2;Temp;Humidity;BMP_temperature;BMP_pressure;BME280_temperature;BME280_humidity;BME280_pressure;Samples;Min_cycle;Max_cycle;Signal;HPM_P1;HPM_P2
2022/03/16 00:01:53;;;;;;;23.65;12.05;;;;;;;4.57;56.06;102606.69;5042399;28;20563;-79
2022/03/16 00:04:19;;;;;;;24.00;11.70;;;;;;;4.56;56.06;102608.38;5022853;28;20041;-79
2022/03/16 00:06:44;;;;;;;27.85;12.93;;;;;;;4.54;55.99;102606.63;5037248;28;20472;-77
2022/03/16 00:09:10;;;;;;;23.27;12.32;;;;;;;4.51;55.82;102606.59;5042946;28;20203;-79
2022/03/16 00:11:35;;;;;;;25.55;12.68;;;;;;;4.46;56.21;102609.13;5017592;28;20059;-78
2022/03/16 00:14:01;;;;;;;27.60;14.77;;;;;;;4.40;56.20;102598.69;5018984;28;20617;-78
2022/03/16 00:16:27;;;;;;;28.25;13.30;;;;;;;4.36;56.14;102597.78;5027044;28;20044;-78
2022/03/16 00:18:52;;;;;;;39.90;14.52;;;;;;;4.20;56.24;102595.81;5037003;28;20253;-80
2022/03/16 00:21:18;;;;;;;29.80;13.65;;;;;;;4.17;56.57;102596.63;5040043;28;20320;-78
2022/03/16 00:23:43;;;;;;;31.83;13.27;;;;;;;4.12;56.97;102597.41;5020458;28;20041;-78
2022/03/16 00:26:09;;;;;;;30.35;13.75;;;;;;;4.06;56.51;102594.75;5024549;28;20071;-78
2022/03/16 00:28:34;;;;;;;31.65;15.13;;;;;;;3.96;56.62;102602.38;5038269;28;20049;-78
2022/03/16 00:31:02;;;;;;;28.95;13.07;;;;;;;3.92;56.70;102600.59;5029470;28;20402;-78
2022/03/16 00:33:28;;;;;;;31.60;13.70;;;;;;;3.81;57.09;102607.31;5064258;28;20047;-78
2022/03/16 00:35:53;;;;;;;28.02;14.15;;;;;;;3.83;56.92;102600.44;5022635;28;20029;-79
2022/03/16 00:38:19;;;;;;;32.10;13.23;;;;;;;3.71;56.81;102605.41;5039740;28;20036;-80
2022/03/16 00:40:45;;;;;;;28.90;13.18;;;;;;;3.63;56.78;102607.88;5020566;28;20469;-78
2022/03/16 00:43:11;;;;;;;28.92;12.70;;;;;;;3.61;57.37;102614.75;5020285;28;20080;-78
2022/03/16 00:45:36;;;;;;;30.95;15.02;;;;;;;3.64;57.51;102603.56;5037569;28;20461;-78
2022/03/16 00:48:02;;;;;;;30.90;13.48;;;;;;;3.59;57.36;102606.94;5025294;28;20205;-78
2022/03/16 00:50:27;;;;;;;33.70;14.20;;;;;;;3.56;57.85;102599.16;5037267;28;20487;-78
2022/03/16 00:52:53;;;;;;;28.65;13.27;;;;;;;3.63;58.13;102599.22;5035816;28;20056;-79
2022/03/16 00:55:19;;;;;;;32.40;13.73;;;;;;;3.65;58.11;102597.53;5037348;28;20509;-80
2022/03/16 00:57:45;;;;;;;31.98;14.13;;;;;;;3.65;57.49;102598.44;5024348;28;20057;-79
2022/03/16 01:00:11;;;;;;;31.40;13.10;;;;;;;3.61;57.65;102596.63;5041046;28;20036;-78
2022/03/16 01:02:36;;;;;;;33.15;13.57;;;;;;;3.53;57.65;102591.31;5020100;28;20577;-78
2022/03/16 01:05:03;;;;;;;27.48;13.77;;;;;;;3.49;57.77;102599.91;5038375;28;20075;-79
2022/03/16 01:07:29;;;;;;;27.13;13.73;;;;;;;3.43;57.39;102593.75;5037280;28;20041;-79
2022/03/16 01:09:54;;;;;;;31.55;12.43;;;;;;;3.34;57.42;102594.44;5038266;28;20037;-80
2022/03/16 01:12:20;;;;;;;27.90;12.60;;;;;;;3.24;57.07;102595.09;5037887;28;20470;-80
2022/03/16 01:14:46;;;;;;;27.48;12.82;;;;;;;3.10;57.46;102587.94;5038609;28;20576;-80
2022/03/16 01:17:12;;;;;;;28.45;13.57;;;;;;;3.09;57.52;102593.97;5039432;28;20567;-80
2022/03/16 01:19:37;;;;;;;27.42;11.38;;;;;;;3.03;57.34;102590.41;5040480;28;20021;-77
2022/03/16 01:22:04;;;;;;;32.33;12.68;;;;;;;2.94;57.39;102589.38;5034890;28;20908;-80
2022/03/16 01:24:30;;;;;;;31.02;13.82;;;;;;;2.91;57.40;102591.91;5037444;28;20065;-78
2022/03/16 01:26:56;;;;;;;26.13;12.93;;;;;;;2.88;57.29;102593.53;5018723;28;20037;-79
2022/03/16 01:29:24;;;;;;;22.88;10.48;;;;;;;2.82;56.90;102589.13;5035804;28;20049;-79
2022/03/16 01:31:52;;;;;;;22.92;11.40;;;;;;;2.80;56.70;102589.94;5039516;28;20029;-79
2022/03/16 01:34:17;;;;;;;28.00;12.45;;;;;;;2.71;56.69;102588.94;5037032;28;20067;-79
2022/03/16 01:36:45;;;;;;;27.00;12.73;;;;;;;2.63;57.06;102584.44;5039628;28;20611;-77
2022/03/16 01:39:11;;;;;;;21.10;11.25;;;;;;;2.64;56.96;102596.50;5039187;28;20040;-80
2022/03/16 01:41:37;;;;;;;22.55;9.32;;;;;;;2.62;56.72;102590.44;5019735;28;20064;-80
2022/03/16 01:44:03;;;;;;;22.77;10.38;;;;;;;2.63;56.63;102587.03;5023347;28;20052;-77
2022/03/16 01:46:29;;;;;;;20.35;10.20;;;;;;;2.57;56.50;102583.47;5019431;28;20311;-80
2022/03/16 01:48:54;;;;;;;25.42;11.05;;;;;;;2.57;56.25;102587.75;5033858;28;20553;-80
2022/03/16 01:51:21;;;;;;;25.40;11.15;;;;;;;2.60;56.60;102593.00;5037013;28;20272;-80
2022/03/16 01:53:48;;;;;;;23.00;10.25;;;;;;;2.56;56.72;102596.34;5034690;28;20056;-78
2022/03/16 01:56:17;;;;;;;23.42;12.38;;;;;;;2.44;57.39;102590.91;5036443;28;20029;-77
2022/03/16 01:58:43;;;;;;;31.48;13.93;;;;;;;2.45;58.31;102598.69;5033938;28;20258;-80
2022/03/16 02:01:09;;;;;;;28.73;12.35;;;;;;;2.43;57.78;102596.94;5015865;28;20048;-80
2022/03/16 02:03:34;;;;;;;27.17;13.10;;;;;;;2.42;58.09;102603.81;5011795;28;20184;-80
2022/03/16 02:06:00;;;;;;;28.92;13.43;;;;;;;2.44;57.77;102596.06;5014161;28;20028;-80
2022/03/16 02:08:30;;;;;;;23.48;11.32;;;;;;;2.43;57.17;102602.97;5019529;28;20970;-79
2022/03/16 02:10:56;;;;;;;28.15;12.82;;;;;;;2.27;57.24;102599.16;5035702;28;20033;-80
2022/03/16 02:13:21;;;;;;;22.58;10.52;;;;;;;2.23;57.33;102596.50;5036844;28;20526;-80
2022/03/16 02:15:47;;;;;;;26.63;11.43;;;;;;;2.16;56.97;102595.47;5034045;28;20464;-78
2022/03/16 02:18:13;;;;;;;28.70;13.90;;;;;;;2.16;57.96;102599.78;5040780;28;20037;-80
2022/03/16 02:20:39;;;;;;;29.85;12.95;;;;;;;2.22;58.17;102595.63;5039242;28;20037;-77
2022/03/16 02:23:07;;;;;;;30.73;12.60;;;;;;;2.27;58.65;102588.84;5035200;28;20118;-78
2022/03/16 02:25:34;;;;;;;32.92;14.40;;;;;;;2.32;58.55;102576.03;5036459;28;20401;-78
2022/03/16 02:28:00;;;;;;;36.22;14.35;;;;;;;2.34;59.26;102575.25;5014008;28;20041;-79
2022/03/16 02:30:28;;;;;;;33.38;14.43;;;;;;;2.53;59.01;102580.78;5044535;28;20072;-80
2022/03/16 02:32:54;;;;;;;39.50;15.30;;;;;;;2.57;58.97;102580.00;5040004;28;20033;-77
2022/03/16 02:35:20;;;;;;;39.45;15.05;;;;;;;2.57;58.94;102575.72;5024893;28;20064;-79
2022/03/16 02:37:45;;;;;;;29.05;14.35;;;;;;;2.68;58.89;102578.53;5042210;28;20055;-79
2022/03/16 02:40:17;;;;;;;28.98;14.40;;;;;;;2.75;59.16;102580.38;5042353;28;20503;-80
2022/03/16 02:42:42;;;;;;;32.28;15.15;;;;;;;2.69;59.47;102580.28;5038373;28;20049;-78
2022/03/16 02:45:08;;;;;;;33.97;14.55;;;;;;;2.88;59.13;102585.81;5023853;28;20381;-79
2022/03/16 02:47:34;;;;;;;34.90;14.75;;;;;;;2.92;58.84;102585.03;5045625;28;20064;-77
2022/03/16 02:50:01;;;;;;;33.25;13.90;;;;;;;2.76;58.46;102594.19;5070577;28;20021;-77
2022/03/16 02:52:27;;;;;;;32.20;15.38;;;;;;;2.76;58.66;102596.78;5056986;28;20271;-79
2022/03/16 02:54:53;;;;;;;31.23;14.18;;;;;;;2.74;58.49;102596.72;5038903;28;20033;-78
2022/03/16 02:57:19;;;;;;;32.05;15.00;;;;;;;2.49;58.43;102597.06;5039268;28;20486;-81
2022/03/16 02:59:45;;;;;;;30.67;14.32;;;;;;;2.35;58.53;102613.13;5039115;28;20091;-80
2022/03/16 03:02:11;;;;;;;29.48;13.48;;;;;;;2.45;58.20;102609.03;5037145;28;20372;-78
2022/03/16 03:04:37;;;;;;;31.92;13.40;;;;;;;2.43;57.65;102615.00;5039507;28;20048;-80
2022/03/16 03:07:03;;;;;;;29.30;13.45;;;;;;;2.40;57.35;102614.91;5037294;28;20041;-78
2022/03/16 03:09:28;;;;;;;25.27;12.00;;;;;;;2.26;57.03;102612.03;5040211;28;20024;-79
2022/03/16 03:11:54;;;;;;;27.38;12.75;;;;;;;2.06;57.61;102616.72;5021655;28;20677;-77
2022/03/16 03:14:20;;;;;;;26.33;13.18;;;;;;;1.98;57.96;102618.28;5018135;28;20041;-80
2022/03/16 03:16:46;;;;;;;31.13;12.52;;;;;;;1.94;58.08;102625.91;5041738;28;20041;-79
2022/03/16 03:19:13;;;;;;;27.55;12.80;;;;;;;1.90;57.54;102624.09;5038717;28;20037;-79
2022/03/16 03:21:38;;;;;;;26.08;11.68;;;;;;;1.86;57.34;102630.03;5023025;28;20052;-78
2022/03/16 03:24:04;;;;;;;23.23;11.18;;;;;;;1.77;57.64;102631.50;5021471;28;20569;-79
2022/03/16 03:26:30;;;;;;;24.65;11.10;;;;;;;1.73;57.29;102626.28;5024405;28;20079;-80
2022/03/16 03:28:55;;;;;;;23.90;12.23;;;;;;;1.67;57.61;102630.41;5019577;28;20171;-79
2022/03/16 03:31:21;;;;;;;33.00;13.10;;;;;;;1.73;57.88;102634.00;5040114;28;20029;-78
2022/03/16 03:33:46;;;;;;;31.98;14.98;;;;;;;1.75;58.57;102634.03;5036282;28;20330;-79
2022/03/16 03:36:12;;;;;;;33.65;14.63;;;;;;;1.90;59.25;102639.56;5022067;28;20105;-79
2022/03/16 03:38:37;;;;;;;29.75;13.23;;;;;;;2.01;58.75;102637.25;5037504;28;20049;-78
2022/03/16 03:41:04;;;;;;;33.47;14.15;;;;;;;2.02;58.54;102628.69;5037314;28;20033;-78
2022/03/16 03:43:29;;;;;;;31.90;13.82;;;;;;;2.06;58.83;102629.63;5038141;28;20040;-79
2022/03/16 03:45:55;;;;;;;42.85;15.90;;;;;;;2.16;59.19;102636.75;5022284;28;20048;-80
2022/03/16 03:48:20;;;;;;;35.35;15.80;;;;;;;2.21;58.78;102636.88;5017909;28;20051;-79
2022/03/16 03:50:45;;;;;;;29.58;14.88;;;;;;;2.19;58.68;102646.28;5020617;28;20033;-79
2022/03/16 03:53:11;;;;;;;30.65;13.95;;;;;;;2.06;57.87;102642.53;5039022;28;20036;-77
2022/03/16 03:55:36;;;;;;;25.75;12.35;;;;;;;1.99;57.31;102643.22;5036826;28;20036;-79
2022/03/16 03:58:02;;;;;;;25.92;12.60;;;;;;;1.92;57.26;102637.91;5021097;28;20087;-79
2022/03/16 04:00:27;;;;;;;24.45;10.68;;;;;;;1.82;56.99;102637.63;5043164;28;20028;-80
2022/03/16 04:02:53;;;;;;;18.75;8.57;;;;;;;1.71;56.91;102633.09;5015633;28;20053;-80
2022/03/16 04:05:20;;;;;;;21.60;9.30;;;;;;;1.73;56.76;102640.88;5026218;28;20033;-77
2022/03/16 04:07:46;;;;;;;19.58;9.30;;;;;;;1.70;56.89;102640.78;5019447;28;20052;-79
2022/03/16 04:10:12;;;;;;;24.10;10.80;;;;;;;1.59;56.55;102642.22;5026349;28;20119;-79
2022/03/16 04:12:38;;;;;;;18.67;10.40;;;;;;;1.51;56.72;102650.63;5038258;28;20071;-80
2022/03/16 04:15:05;;;;;;;18.35;10.73;;;;;;;1.56;56.71;102644.72;5022745;28;20418;-76
2022/03/16 04:17:30;;;;;;;20.63;9.98;;;;;;;1.46;56.84;102652.22;5040636;28;20049;-79
2022/03/16 04:19:56;;;;;;;17.95;9.48;;;;;;;1.46;56.71;102653.91;5020784;28;20029;-78
2022/03/16 04:22:21;;;;;;;20.52;10.02;;;;;;;1.45;56.84;102650.47;5036414;28;20053;-79
2022/03/16 04:24:47;;;;;;;20.35;9.00;;;;;;;1.39;56.61;102654.53;5037030;28;20068;-80
2022/03/16 04:27:12;;;;;;;14.40;8.05;;;;;;;1.31;56.42;102656.94;5041301;28;20421;-80
2022/03/16 04:29:38;;;;;;;18.45;8.38;;;;;;;1.25;56.66;102659.31;5020271;28;20102;-78
2022/03/16 04:32:04;;;;;;;20.25;9.55;;;;;;;1.11;56.64;102658.94;5040923;28;20760;-77
2022/03/16 04:34:29;;;;;;;20.92;10.68;;;;;;;1.21;56.67;102654.91;5043110;28;20039;-79
2022/03/16 04:36:55;;;;;;;26.33;11.18;;;;;;;1.24;57.04;102660.19;5035620;28;20139;-79
2022/03/16 04:39:20;;;;;;;24.35;11.98;;;;;;;1.34;56.80;102664.72;5041708;28;20057;-79
2022/03/16 04:41:46;;;;;;;28.48;10.77;;;;;;;1.26;56.84;102664.53;5036174;28;20036;-80
2022/03/16 04:44:11;;;;;;;19.95;8.90;;;;;;;1.08;57.05;102661.41;5036302;28;20438;-79
2022/03/16 04:46:37;;;;;;;22.25;9.63;;;;;;;1.07;57.48;102667.41;5041237;28;20036;-80
2022/03/16 04:49:02;;;;;;;30.45;11.13;;;;;;;1.05;57.30;102664.78;5018513;28;20037;-79
2022/03/16 04:51:28;;;;;;;26.33;11.52;;;;;;;1.07;57.43;102668.28;5020883;28;20035;-80
2022/03/16 04:53:53;;;;;;;22.65;11.48;;;;;;;1.11;57.34;102669.25;5035153;28;20055;-78
2022/03/16 04:56:19;;;;;;;21.70;10.63;;;;;;;1.15;57.07;102675.34;5022407;28;20040;-80
2022/03/16 04:58:44;;;;;;;23.00;10.88;;;;;;;1.14;56.79;102674.47;5034877;28;20044;-78
2022/03/16 05:01:10;;;;;;;19.25;10.00;;;;;;;1.13;57.31;102679.56;5037209;28;20613;-78
2022/03/16 05:03:35;;;;;;;24.35;9.77;;;;;;;1.05;56.97;102675.09;5014274;28;20045;-80
2022/03/16 05:06:01;;;;;;;20.33;8.85;;;;;;;0.96;57.33;102679.97;5021858;28;20036;-79
2022/03/16 05:08:26;;;;;;;17.08;9.25;;;;;;;1.01;57.55;102673.25;5067158;28;20049;-78
2022/03/16 05:10:52;;;;;;;18.98;10.18;;;;;;;1.02;57.41;102677.59;5060037;28;20013;-80
2022/03/16 05:13:17;;;;;;;18.73;8.75;;;;;;;1.14;57.58;102676.19;5037573;28;20501;-79
2022/03/16 05:15:43;;;;;;;25.38;11.00;;;;;;;1.14;57.33;102679.63;5017747;28;20457;-80
2022/03/16 05:18:08;;;;;;;22.52;10.23;;;;;;;1.17;57.51;102677.16;5035672;28;20483;-80
2022/03/16 05:20:34;;;;;;;27.70;11.63;;;;;;;1.19;57.76;102683.19;5036240;28;20033;-79
2022/03/16 05:22:59;;;;;;;25.85;12.15;;;;;;;1.21;57.95;102684.13;5041056;28;20055;-78
2022/03/16 05:25:30;;;;;;;27.70;12.40;;;;;;;1.30;58.31;102688.66;5037688;28;20036;-79
2022/03/16 05:27:56;;;;;;;26.08;11.68;;;;;;;1.38;58.33;102689.75;5018496;28;20123;-79
2022/03/16 05:30:26;;;;;;;29.98;11.85;;;;;;;1.48;58.63;102684.06;5021567;28;20040;-80
2022/03/16 05:32:54;;;;;;;29.55;12.73;;;;;;;1.58;58.89;102681.72;5017380;28;20043;-79
2022/03/16 05:35:19;;;;;;;33.88;11.65;;;;;;;1.73;59.59;102683.00;5037401;28;20047;-81
2022/03/16 05:37:45;;;;;;;57.80;15.48;;;;;;;1.92;59.74;102678.28;5018524;28;20060;-79
2022/03/16 05:40:11;;;;;;;88.18;15.70;;;;;;;1.84;60.34;102675.53;5035433;28;20036;-79
2022/03/16 05:42:37;;;;;;;30.48;13.98;;;;;;;1.76;60.93;102669.31;5043156;28;20356;-80
2022/03/16 05:45:04;;;;;;;37.67;13.77;;;;;;;1.81;60.77;102662.56;5040688;28;20247;-80
2022/03/16 05:47:30;;;;;;;34.80;13.85;;;;;;;1.85;60.77;102666.97;5024481;28;20400;-79
2022/03/16 05:49:56;;;;;;;34.00;14.25;;;;;;;1.78;61.20;102653.88;5039274;28;20492;-79
2022/03/16 05:52:23;;;;;;;31.85;14.40;;;;;;;1.95;60.85;102660.31;5035422;28;20037;-79
2022/03/16 05:54:50;;;;;;;36.83;14.63;;;;;;;1.99;60.23;102662.13;5036020;28;20052;-81
2022/03/16 05:57:16;;;;;;;31.67;14.32;;;;;;;2.07;60.16;102662.34;5036008;28;20033;-78
2022/03/16 05:59:42;;;;;;;32.78;15.48;;;;;;;2.16;59.65;102664.28;5019339;28;20075;-78
2022/03/16 06:02:09;;;;;;;30.98;14.50;;;;;;;2.25;59.39;102660.19;5014074;28;20543;-78
2022/03/16 06:04:35;;;;;;;32.42;14.50;;;;;;;2.30;59.20;102675.78;5036015;28;20033;-79
2022/03/16 06:07:02;;;;;;;34.33;15.75;;;;;;;2.31;58.80;102673.25;5035085;28;20037;-80
2022/03/16 06:09:27;;;;;;;33.35;14.73;;;;;;;2.34;58.98;102688.78;5037877;28;20029;-80
2022/03/16 06:11:53;;;;;;;36.25;15.10;;;;;;;1.97;59.75;102693.88;5017819;28;20064;-79
2022/03/16 06:14:18;;;;;;;30.38;14.48;;;;;;;2.05;59.66;102700.13;5035728;28;20072;-78
2022/03/16 06:16:44;;;;;;;35.33;12.50;;;;;;;2.18;58.48;102694.44;5018832;28;20571;-79
2022/03/16 06:19:10;;;;;;;78.70;11.95;;;;;;;2.02;58.33;102689.69;5015397;28;20391;-80
2022/03/16 06:21:35;;;;;;;36.30;12.05;;;;;;;2.04;58.32;102682.88;5019112;28;20513;-78
2022/03/16 06:24:01;;;;;;;26.17;11.90;;;;;;;2.05;58.57;102687.22;5012718;28;20057;-80
2022/03/16 06:26:26;;;;;;;23.67;11.73;;;;;;;2.05;58.76;102682.94;5041109;28;20390;-80
2022/03/16 06:28:52;;;;;;;24.58;12.13;;;;;;;2.16;58.65;102688.34;5034637;28;20470;-80
2022/03/16 06:31:17;;;;;;;22.50;12.43;;;;;;;2.22;58.64;102690.19;5036304;28;20086;-80
2022/03/16 06:33:43;;;;;;;26.02;12.95;;;;;;;2.17;58.65;102702.97;5035082;28;20469;-80
2022/03/16 06:36:08;;;;;;;26.63;13.27;;;;;;;2.36;58.57;102701.72;5035788;28;20044;-80
2022/03/16 06:38:34;;;;;;;26.88;12.10;;;;;;;2.47;58.70;102699.41;5019206;28;20646;-79
2022/03/16 06:40:59;;;;;;;28.25;12.68;;;;;;;2.52;58.38;102702.97;5036450;28;20056;-79
2022/03/16 06:43:25;;;;;;;23.45;12.65;;;;;;;2.52;58.09;102716.72;5035262;28;20112;-79
2022/03/16 06:45:50;;;;;;;25.52;12.18;;;;;;;2.54;58.09;102716.78;5035373;28;20049;-80
2022/03/16 06:48:16;;;;;;;25.00;11.02;;;;;;;2.48;57.81;102722.66;5037736;28;20040;-80
2022/03/16 06:50:41;;;;;;;25.42;12.95;;;;;;;2.53;57.85;102725.34;5036066;28;20085;-79
2022/03/16 06:53:07;;;;;;;24.65;11.93;;;;;;;2.54;58.01;102724.53;5034740;28;20052;-78
2022/03/16 06:55:32;;;;;;;28.33;13.18;;;;;;;2.45;58.50;102725.16;5014533;28;20446;-79
2022/03/16 06:57:58;;;;;;;37.03;13.75;;;;;;;2.59;59.00;102712.56;5037147;28;20037;-80
2022/03/16 07:00:23;;;;;;;33.45;14.68;;;;;;;2.71;58.93;102723.19;5036454;28;20046;-80
2022/03/16 07:02:55;;;;;;;34.35;13.50;;;;;;;2.76;59.02;102719.00;5032376;28;20379;-78
2022/03/16 07:05:24;;;;;;;17.98;8.75;;;;;;;2.82;58.80;102718.25;5035413;28;20029;-81
2022/03/16 07:07:50;;;;;;;29.88;13.90;;;;;;;2.65;58.99;102712.72;5015923;28;20128;-79
2022/03/16 07:10:16;;;;;;;36.80;15.60;;;;;;;2.64;59.38;102715.25;5032710;28;20394;-81
2022/03/16 07:12:41;;;;;;;29.75;14.82;;;;;;;2.60;59.62;102716.03;5015725;28;20159;-81
2022/03/16 07:15:07;;;;;;;33.65;15.85;;;;;;;2.76;59.24;102723.31;5036732;28;20523;-79
2022/03/16 07:17:33;;;;;;;35.03;14.73;;;;;;;2.83;59.33;102726.88;5037662;28;20469;-79
2022/03/16 07:19:58;;;;;;;36.50;16.05;;;;;;;2.79;59.35;102727.66;5015741;28;20059;-79
2022/03/16 07:22:24;;;;;;;27.27;14.80;;;;;;;2.72;59.63;102729.22;5040939;28;20079;-80
2022/03/16 07:24:49;;;;;;;37.05;15.40;;;;;;;2.74;59.52;102731.00;5025743;28;20041;-81
2022/03/16 07:27:15;;;;;;;34.72;15.40;;;;;;;2.53;60.03;102723.66;5015527;28;20567;-79
2022/03/16 07:29:41;;;;;;;41.92;16.95;;;;;;;2.47;60.98;102720.91;5040007;28;20128;-79
2022/03/16 07:32:07;;;;;;;37.80;17.08;;;;;;;2.73;60.28;102708.63;5022520;28;20079;-78
2022/03/16 07:34:33;;;;;;;36.08;15.70;;;;;;;2.86;60.27;102717.47;5040400;28;20517;-80
2022/03/16 07:36:58;;;;;;;41.42;17.10;;;;;;;3.21;59.46;102722.53;5021596;28;20036;-81
2022/03/16 07:39:24;;;;;;;36.38;16.88;;;;;;;3.43;58.82;102726.44;5039844;28;20723;-78
2022/03/16 07:41:50;;;;;;;41.60;16.73;;;;;;;3.51;58.70;102730.03;5043048;28;20111;-80
2022/03/16 07:44:16;;;;;;;37.13;15.73;;;;;;;3.69;57.82;102739.00;5037148;28;20052;-80
2022/03/16 07:46:41;;;;;;;41.50;17.17;;;;;;;3.81;57.79;102741.81;5040686;28;20036;-79
2022/03/16 07:49:07;;;;;;;37.97;16.05;;;;;;;3.87;58.05;102741.91;5022788;28;20067;-78
2022/03/16 07:51:33;;;;;;;38.45;17.02;;;;;;;3.97;57.80;102746.41;5021315;28;20033;-80
2022/03/16 07:53:58;;;;;;;35.70;17.40;;;;;;;4.00;57.67;102749.03;5039268;28;20391;-79
2022/03/16 07:56:24;;;;;;;30.83;16.90;;;;;;;4.10;57.41;102733.69;5037201;28;20511;-82
2022/03/16 07:58:51;;;;;;;33.28;17.02;;;;;;;4.39;57.00;102739.34;5020330;28;20575;-82
2022/03/16 08:01:17;;;;;;;33.92;17.05;;;;;;;4.37;57.34;102749.66;5038312;28;20037;-79
2022/03/16 08:03:43;;;;;;;35.90;16.23;;;;;;;4.77;56.74;102739.91;5040176;28;20529;-80
2022/03/16 08:06:08;;;;;;;35.20;15.82;;;;;;;4.69;56.85;102749.28;5039189;28;20025;-80
2022/03/16 08:08:39;;;;;;;42.97;17.77;;;;;;;4.71;57.02;102752.75;5041827;28;20469;-79
2022/03/16 08:11:06;;;;;;;42.03;15.95;;;;;;;4.87;56.32;102750.41;5038555;28;20036;-80
2022/03/16 08:13:33;;;;;;;32.30;14.98;;;;;;;5.03;56.34;102753.25;5035292;28;20119;-80
2022/03/16 08:15:58;;;;;;;33.75;15.55;;;;;;;5.25;55.52;102749.19;5003570;28;20124;-80
2022/03/16 08:18:24;;;;;;;33.60;15.15;;;;;;;5.38;55.13;102759.72;5036420;28;20040;-78
2022/03/16 08:20:50;;;;;;;33.55;16.42;;;;;;;5.30;55.00;102761.34;5020326;28;20498;-82
2022/03/16 08:23:15;;;;;;;42.42;15.95;;;;;;;5.31;54.97;102757.94;5036984;28;20534;-81
2022/03/16 08:25:41;;;;;;;30.80;14.15;;;;;;;5.35;54.85;102770.09;5039341;28;20095;-80
2022/03/16 08:28:07;;;;;;;34.17;15.88;;;;;;;5.13;55.26;102774.97;5003668;28;20720;-81
2022/03/16 08:30:34;;;;;;;38.85;16.80;;;;;;;5.22;55.57;102764.72;5024365;28;20032;-79
2022/03/16 08:33:01;;;;;;;33.35;15.23;;;;;;;5.29;54.56;102770.84;5043096;28;20050;-80
2022/03/16 08:35:27;;;;;;;31.90;16.42;;;;;;;5.57;54.24;102771.19;5040743;28;20037;-81
2022/03/16 08:37:53;;;;;;;34.00;16.15;;;;;;;5.51;54.30;102777.19;5038148;28;20033;-79
2022/03/16 08:40:20;;;;;;;31.55;16.17;;;;;;;5.54;54.08;102764.22;5040166;28;20045;-77
2022/03/16 08:42:45;;;;;;;36.28;14.05;;;;;;;5.40;54.29;102761.50;5039753;28;20055;-79
2022/03/16 08:45:11;;;;;;;30.55;14.65;;;;;;;5.87;54.10;102763.72;5036441;28;20032;-79
2022/03/16 08:47:37;;;;;;;32.47;15.05;;;;;;;5.77;53.39;102759.31;5040821;28;20618;-81
2022/03/16 08:50:03;;;;;;;31.88;15.73;;;;;;;5.79;53.06;102764.50;5020883;28;20032;-80
2022/03/16 08:52:29;;;;;;;33.30;14.77;;;;;;;5.69;53.62;102760.09;5033907;28;20058;-80
2022/03/16 08:54:55;;;;;;;30.60;14.85;;;;;;;6.11;53.44;102758.78;5034026;28;20558;-79
2022/03/16 08:57:22;;;;;;;37.85;16.00;;;;;;;6.09;53.20;102758.75;5021242;28;20108;-79
2022/03/16 08:59:48;;;;;;;31.98;14.38;;;;;;;6.31;52.67;102757.25;5034661;28;20091;-80
2022/03/16 09:02:14;;;;;;;29.73;15.00;;;;;;;6.57;52.04;102760.00;5018899;28;20041;-80
2022/03/16 09:04:40;;;;;;;34.75;15.40;;;;;;;6.32;52.31;102751.19;5034739;28;20122;-83
2022/03/16 09:07:06;;;;;;;39.67;16.92;;;;;;;6.69;52.28;102759.25;5017580;28;20033;-82
2022/03/16 09:09:33;;;;;;;34.85;15.85;;;;;;;6.76;51.85;102750.63;5034666;28;20091;-78
2022/03/16 09:12:00;;;;;;;28.70;14.80;;;;;;;7.22;51.00;102761.25;5040069;28;20620;-80
2022/03/16 09:14:26;;;;;;;38.85;15.43;;;;;;;7.71;49.94;102765.78;5034246;28;20523;-79
2022/03/16 09:16:52;;;;;;;31.55;15.35;;;;;;;8.13;49.21;102757.13;5010549;28;20037;-79
2022/03/16 09:19:21;;;;;;;24.75;14.65;;;;;;;8.64;47.58;102757.13;5018709;28;20037;-81
2022/03/16 09:21:48;;;;;;;31.27;15.15;;;;;;;8.77;47.28;102747.56;5033624;28;20037;-80
2022/03/16 09:24:18;;;;;;;29.33;14.02;;;;;;;8.93;46.39;102751.00;5034607;28;20487;-80
2022/03/16 09:26:45;;;;;;;25.85;13.98;;;;;;;9.10;46.16;102757.03;5034073;28;20033;-79
2022/03/16 09:29:11;;;;;;;28.77;14.32;;;;;;;8.96;46.42;102758.78;5034948;28;20135;-78
2022/03/16 09:31:38;;;;;;;34.95;15.27;;;;;;;8.61;46.82;102756.28;5018034;28;20040;-78
2022/03/16 09:34:07;;;;;;;36.75;14.52;;;;;;;9.03;46.48;102754.44;4995466;28;20450;-80
2022/03/16 09:36:34;;;;;;;32.30;15.90;;;;;;;9.48;45.55;102742.94;5035150;28;20067;-80
2022/03/16 09:39:00;;;;;;;30.00;14.35;;;;;;;9.32;45.68;102749.97;5012515;28;20088;-81
2022/03/16 09:41:26;;;;;;;32.30;15.00;;;;;;;9.23;45.65;102752.63;5037406;28;20083;-79
2022/03/16 09:43:54;;;;;;;29.05;14.10;;;;;;;9.10;45.72;102753.56;5011485;28;20049;-79
2022/03/16 09:46:24;;;;;;;29.20;14.25;;;;;;;9.39;45.74;102749.06;5036034;28;20058;-81
2022/03/16 09:48:50;;;;;;;28.85;15.05;;;;;;;9.69;45.18;102747.16;5033159;28;20037;-78
2022/03/16 09:51:18;;;;;;;25.95;14.98;;;;;;;9.82;44.73;102732.31;5038812;28;20538;-78
2022/03/16 09:53:45;;;;;;;31.88;15.35;;;;;;;10.02;44.28;102740.00;5037392;28;20048;-78
2022/03/16 09:56:11;;;;;;;31.33;15.73;;;;;;;9.77;44.89;102729.69;5018527;28;20059;-77
2022/03/16 09:58:41;;;;;;;34.47;16.08;;;;;;;9.64;44.84;102728.03;5015414;28;20132;-76
2022/03/16 10:01:07;;;;;;;35.38;15.27;;;;;;;10.20;43.93;102724.16;5018676;28;20074;-78
2022/03/16 10:03:34;;;;;;;32.40;15.98;;;;;;;10.63;43.78;102728.94;5031357;28;20518;-77
2022/03/16 10:06:00;;;;;;;28.58;15.45;;;;;;;11.48;41.85;102721.84;5036030;28;20589;-78
2022/03/16 10:08:34;;;;;;;33.28;16.17;;;;;;;11.32;40.23;102732.50;5036058;28;20056;-79
2022/03/16 10:13:54;;;;;;;32.67;17.42;;;;;;;10.81;42.08;102727.00;5037324;28;20063;-79
2022/03/16 10:16:20;;;;;;;34.88;17.05;;;;;;;10.78;40.88;102721.84;5037905;28;20565;-78
2022/03/16 10:18:53;;;;;;;27.27;14.63;;;;;;;10.99;40.61;102731.19;5033706;28;20140;-77
2022/03/16 10:21:19;;;;;;;32.00;15.50;;;;;;;11.04;40.16;102732.88;5020101;28;20033;-78
2022/03/16 10:23:45;;;;;;;28.88;16.17;;;;;;;11.66;40.00;102724.16;5017728;28;20047;-77
2022/03/16 10:26:21;;;;;;;30.63;15.50;;;;;;;11.99;40.58;102727.19;5042837;28;20115;-77
2022/03/16 10:28:47;;;;;;;30.52;14.98;;;;;;;12.15;38.45;102718.16;5039250;28;20490;-79
2022/03/16 10:31:15;;;;;;;33.40;16.90;;;;;;;11.78;39.47;102713.56;5038547;28;20037;-78
2022/03/16 10:33:47;;;;;;;29.13;15.85;;;;;;;12.03;39.79;102707.91;5032784;28;20047;-76
2022/03/16 10:36:15;;;;;;;26.20;13.95;;;;;;;11.97;39.75;102702.75;5040700;28;20037;-78
2022/03/16 10:38:46;;;;;;;31.27;15.10;;;;;;;11.50;39.27;102696.50;5033888;28;20618;-78
2022/03/16 10:46:53;;;;;;;25.38;14.80;;;;;;;11.29;40.94;102687.22;5040496;28;20126;-78
2022/03/16 10:49:22;;;;;;;30.17;15.18;;;;;;;11.10;40.49;102683.97;5039623;28;20127;-79
2022/03/16 10:52:00;;;;;;;33.63;14.93;;;;;;;11.37;40.60;102680.94;5037357;28;20043;-80
2022/03/16 10:54:26;;;;;;;31.27;15.27;;;;;;;11.51;40.16;102682.50;5006038;28;20041;-77
2022/03/16 10:56:54;;;;;;;32.42;15.85;;;;;;;12.18;39.41;102694.53;5038462;28;20135;-78
2022/03/16 10:59:26;;;;;;;32.17;15.02;;;;;;;12.23;38.61;102692.69;5018191;28;20032;-80
2022/03/16 11:01:53;;;;;;;28.88;14.52;;;;;;;12.34;38.18;102689.03;5022220;28;20044;-78
2022/03/16 11:04:20;;;;;;;29.10;14.73;;;;;;;12.05;38.55;102686.03;5023645;28;20126;-79
2022/03/16 11:06:47;;;;;;;27.30;15.57;;;;;;;12.40;37.80;102681.03;5021302;28;20045;-80
2022/03/16 11:09:15;;;;;;;25.55;14.10;;;;;;;12.96;37.21;102675.56;5042571;28;20091;-79
2022/03/16 11:14:27;;;;;;;21.67;12.65;;;;;;;12.51;36.72;102676.44;5022736;28;20113;-78
2022/03/16 11:16:53;;;;;;;22.77;10.82;;;;;;;11.99;36.22;102672.16;5037829;28;20668;-80
2022/03/16 11:19:19;;;;;;;23.70;12.30;;;;;;;11.99;36.86;102665.16;5023166;28;20072;-79
2022/03/16 11:21:58;;;;;;;26.52;11.93;;;;;;;11.86;36.65;102659.25;5020241;28;20439;-79
2022/03/16 11:24:26;;;;;;;22.90;12.13;;;;;;;12.39;37.38;102656.56;5039051;28;20041;-79